Fryburg, North Dakota
Current Conditions -  °F | °C
As of 8:56 PM on Saturday 24 Jan 2015 (Local Time) from KDIK Reporting Station
Overcast Overcast  
Wind Chill: 28°   Ceiling: 2700
Heat Index: 38°   Visibility: 10mi
Dew Point: 30°   Wind: 21mph
Humidity: 73%   Direction: 310°NW
Pressure: 29.87"   Gusts: 38mph
Location:  46.8731°N, 103.138°W
Report Text: KDIK 250356Z AUTO 31018G33KT 10SM OVC027 03/M01 A2987 RMK AO2 PK WND 32033/0349 SLP131 T00331011
Loading
Personal Weather Stations






























Interactive Weather Map New forecast layout! Learn more

10-Day Weather Forecast

Advertisements
Track Severe Weather on mobile